createdAt,value
2019-05-22T00:00:38.580Z,88.95
2019-05-22T00:03:13.443Z,88.92
2019-05-22T00:05:46.778Z,88.78
2019-05-22T00:08:20.104Z,88.67
2019-05-22T00:10:54.494Z,88.14
2019-05-22T00:13:34.621Z,88.33
2019-05-22T00:16:07.783Z,88.07
2019-05-22T00:18:40.690Z,88.11
2019-05-22T00:21:12.885Z,88.25
2019-05-22T00:23:45.432Z,88.28
2019-05-22T00:26:18.664Z,88.13
2019-05-22T00:28:50.399Z,88.04
2019-05-22T00:31:23.461Z,87.79
2019-05-22T00:33:56.088Z,87.90
2019-05-22T00:36:30.146Z,87.68
2019-05-22T00:39:03.521Z,87.70
2019-05-22T00:41:37.816Z,87.66
2019-05-22T00:44:12.915Z,87.64
2019-05-22T00:46:44.788Z,87.34
2019-05-22T00:49:18.125Z,87.37
2019-05-22T00:52:22.743Z,87.54
2019-05-22T00:55:07.506Z,87.54
2019-05-22T00:57:53.954Z,87.52
2019-05-22T01:00:39.725Z,87.51
2019-05-22T01:03:16.494Z,87.64
2019-05-22T01:05:49.455Z,87.59
2019-05-22T01:08:22.237Z,87.47
2019-05-22T01:10:54.740Z,87.23
2019-05-22T01:13:30.906Z,87.25
2019-05-22T01:16:05.304Z,87.09
2019-05-22T01:18:39.125Z,86.88
2019-05-22T01:21:14.332Z,86.65
2019-05-22T01:23:45.903Z,86.50
2019-05-22T01:26:19.247Z,86.80
2019-05-22T01:28:51.098Z,86.88
2019-05-22T01:31:31.156Z,87.03
2019-05-22T01:34:11.495Z,87.07
2019-05-22T01:36:47.286Z,86.79
2019-05-22T01:39:39.460Z,86.83
2019-05-22T01:42:14.237Z,86.37
2019-05-22T01:45:00.940Z,86.44
2019-05-22T01:48:05.603Z,86.36
2019-05-22T01:50:57.495Z,86.38
2019-05-22T01:53:36.133Z,86.45
2019-05-22T01:56:11.174Z,86.66
2019-05-22T01:58:43.766Z,86.77
2019-05-22T02:01:21.750Z,86.65
2019-05-22T02:03:56.682Z,86.75
2019-05-22T02:06:29.227Z,86.81
2019-05-22T02:09:30.875Z,86.95
2019-05-22T02:12:13.665Z,86.88
2019-05-22T02:14:49.879Z,86.73
2019-05-22T02:17:29.510Z,86.58
2019-05-22T02:20:01.676Z,86.70
2019-05-22T02:22:34.097Z,87.06
2019-05-22T02:25:06.811Z,87.16
2019-05-22T02:27:39.927Z,87.05
2019-05-22T02:30:13.845Z,86.87
2019-05-22T02:32:47.441Z,86.86
2019-05-22T02:35:19.663Z,86.92
2019-05-22T02:37:53.148Z,87.04
2019-05-22T02:40:31.664Z,87.06
2019-05-22T02:43:03.784Z,87.35
2019-05-22T02:45:35.932Z,87.34
2019-05-22T02:48:09.439Z,87.31
2019-05-22T02:50:42.066Z,87.27
2019-05-22T02:53:16.043Z,87.21
2019-05-22T02:55:49.196Z,87.25
2019-05-22T02:58:22.671Z,87.26
2019-05-22T03:01:04.982Z,87.43
2019-05-22T03:03:37.532Z,87.32
2019-05-22T03:06:14.347Z,87.41
2019-05-22T03:09:15.815Z,87.48
2019-05-22T03:11:59.290Z,87.23
2019-05-22T03:14:33.043Z,87.50
2019-05-22T03:17:09.940Z,87.54
2019-05-22T03:19:45.439Z,87.51
2019-05-22T03:22:31.060Z,87.45
2019-05-22T03:25:07.761Z,87.20
2019-05-22T03:27:44.923Z,87.30
2019-05-22T03:30:32.590Z,87.34
2019-05-22T03:33:05.948Z,87.13
2019-05-22T03:35:47.247Z,86.94
2019-05-22T03:38:21.334Z,86.76
2019-05-22T03:40:54.741Z,86.67
2019-05-22T03:43:29.671Z,86.61
2019-05-22T03:46:06.616Z,86.60
2019-05-22T03:48:38.881Z,86.46
2019-05-22T03:51:15.194Z,86.08
2019-05-22T03:53:48.500Z,86.21
2019-05-22T03:56:22.445Z,86.32
2019-05-22T03:58:55.309Z,86.36
2019-05-22T04:01:26.893Z,86.04
2019-05-22T04:03:59.680Z,85.65
2019-05-22T04:06:33.538Z,85.34
2019-05-22T04:09:23.003Z,85.48
2019-05-22T04:11:55.198Z,85.66
2019-05-22T04:14:40.196Z,85.67
2019-05-22T04:17:13.796Z,85.66
2019-05-22T04:19:49.898Z,85.02
2019-05-22T04:22:19.968Z,84.87
2019-05-22T04:24:52.133Z,84.90
2019-05-22T04:27:24.574Z,85.02
2019-05-22T04:29:57.643Z,84.97
2019-05-22T04:32:35.004Z,84.96
2019-05-22T04:35:11.365Z,85.24
2019-05-22T04:37:44.527Z,85.44
2019-05-22T04:40:59.325Z,85.50
2019-05-22T04:43:34.830Z,85.49
2019-05-22T04:46:09.777Z,85.39
2019-05-22T04:48:45.822Z,85.67
2019-05-22T04:51:31.891Z,85.80
2019-05-22T04:54:03.453Z,86.14
2019-05-22T04:56:35.612Z,86.06
2019-05-22T04:59:08.364Z,86.12
2019-05-22T05:01:41.239Z,85.97
2019-05-22T05:04:14.129Z,86.19
2019-05-22T05:06:45.674Z,86.25
2019-05-22T05:09:17.573Z,86.29
2019-05-22T05:11:49.622Z,86.46
2019-05-22T05:14:21.207Z,86.46
2019-05-22T05:16:52.784Z,86.50
2019-05-22T05:19:24.686Z,86.53
2019-05-22T05:21:56.549Z,86.29
2019-05-22T05:24:28.106Z,86.29
2019-05-22T05:27:00.777Z,86.24
2019-05-22T05:29:33.317Z,86.38
2019-05-22T05:32:05.791Z,86.27
2019-05-22T05:34:48.107Z,86.15
2019-05-22T05:37:23.474Z,86.24
2019-05-22T05:40:26.616Z,86.26
2019-05-22T05:42:58.625Z,86.37
2019-05-22T05:45:32.600Z,86.36
2019-05-22T05:48:08.215Z,86.40
2019-05-22T05:50:41.323Z,86.34
2019-05-22T05:53:18.701Z,86.22
2019-05-22T05:56:17.121Z,86.20
2019-05-22T05:58:48.716Z,86.15
2019-05-22T06:01:44.155Z,85.92
2019-05-22T06:04:34.115Z,85.74
2019-05-22T06:07:20.020Z,85.70
2019-05-22T06:11:00.486Z,85.52
2019-05-22T06:13:32.370Z,85.44
2019-05-22T06:17:06.730Z,85.59
2019-05-22T06:19:43.062Z,85.44
2019-05-22T06:22:16.430Z,85.55
2019-05-22T06:25:04.140Z,85.50
2019-05-22T06:27:44.971Z,85.48
2019-05-22T06:30:19.323Z,85.15
2019-05-22T06:33:29.788Z,85.04
2019-05-22T06:36:06.195Z,84.93
2019-05-22T06:39:03.244Z,84.99
2019-05-22T06:41:42.935Z,85.01
2019-05-22T06:44:43.739Z,85.12
2019-05-22T06:47:22.027Z,85.18
2019-05-22T06:49:58.569Z,84.95
2019-05-22T06:52:30.540Z,85.11
2019-05-22T06:55:02.710Z,84.53
2019-05-22T06:57:35.274Z,84.78
2019-05-22T07:00:16.689Z,84.78
2019-05-22T07:02:48.661Z,84.65
2019-05-22T07:05:20.261Z,85.01
2019-05-22T07:07:51.874Z,85.04
2019-05-22T07:10:23.767Z,84.71
2019-05-22T07:12:55.571Z,84.82
2019-05-22T07:15:55.602Z,84.75
2019-05-22T07:18:30.834Z,84.45
2019-05-22T07:21:03.690Z,84.37
2019-05-22T07:23:37.172Z,84.43
2019-05-22T07:26:09.233Z,84.33
2019-05-22T07:28:40.952Z,84.55
2019-05-22T07:31:12.523Z,84.12
2019-05-22T07:33:44.098Z,84.03
2019-05-22T07:36:17.225Z,84.31
2019-05-22T07:38:50.441Z,84.21
2019-05-22T07:41:22.060Z,84.36
2019-05-22T07:43:53.749Z,84.44
2019-05-22T07:46:26.303Z,83.85
2019-05-22T07:48:59.718Z,84.29
2019-05-22T07:51:32.064Z,83.91
2019-05-22T07:54:03.664Z,83.86
2019-05-22T07:56:35.437Z,84.02
2019-05-22T07:59:07.319Z,83.78
2019-05-22T08:01:39.720Z,83.87
2019-05-22T08:04:11.679Z,83.77
2019-05-22T08:06:43.591Z,83.21
2019-05-22T08:09:16.958Z,83.72
2019-05-22T08:11:48.952Z,83.69
2019-05-22T08:14:22.278Z,83.78
2019-05-22T08:16:54.398Z,83.83
2019-05-22T08:19:27.250Z,83.80
2019-05-22T08:22:07.456Z,84.36
2019-05-22T08:24:34.001Z,83.31
2019-05-22T08:27:08.432Z,83.74
2019-05-22T08:29:40.010Z,84.10
2019-05-22T08:32:13.068Z,84.01
2019-05-22T08:34:45.415Z,84.07
2019-05-22T08:37:22.828Z,83.55
2019-05-22T08:39:54.560Z,83.54
2019-05-22T08:42:27.705Z,83.66
2019-05-22T08:44:59.567Z,82.66
2019-05-22T08:47:32.296Z,82.63
2019-05-22T08:50:04.376Z,82.04
2019-05-22T08:52:36.189Z,81.99
2019-05-22T08:55:09.563Z,81.50
2019-05-22T08:57:44.681Z,81.56
2019-05-22T09:00:18.974Z,81.67
2019-05-22T09:02:51.286Z,81.41
2019-05-22T09:05:23.466Z,81.53
2019-05-22T09:07:55.071Z,81.46
2019-05-22T09:10:26.639Z,81.18
2019-05-22T09:12:58.218Z,80.77
2019-05-22T09:15:30.282Z,81.28
2019-05-22T09:18:02.863Z,81.18
2019-05-22T09:20:48.173Z,81.06
2019-05-22T09:23:08.451Z,81.12
2019-05-22T09:25:40.035Z,81.45
2019-05-22T09:28:12.493Z,81.03
2019-05-22T09:30:44.723Z,80.74
2019-05-22T09:33:17.706Z,80.74
2019-05-22T09:35:50.058Z,81.27
2019-05-22T09:38:22.263Z,81.62
2019-05-22T09:40:53.952Z,81.29
2019-05-22T09:43:25.558Z,82.16
2019-05-22T09:45:57.133Z,81.92
2019-05-22T09:48:28.723Z,82.52
2019-05-22T09:51:00.706Z,82.70
2019-05-22T09:53:32.834Z,82.86
2019-05-22T09:56:05.846Z,82.91
2019-05-22T09:58:37.502Z,82.89
2019-05-22T10:01:11.869Z,81.55
2019-05-22T10:03:44.412Z,81.76
2019-05-22T10:06:16.033Z,81.21
2019-05-22T10:08:47.695Z,81.33
2019-05-22T10:11:20.692Z,81.41
2019-05-22T10:13:52.678Z,81.89
2019-05-22T10:16:25.019Z,81.50
2019-05-22T10:18:56.720Z,81.09
2019-05-22T10:21:29.303Z,80.83
2019-05-22T10:24:01.970Z,80.42
2019-05-22T10:26:34.394Z,79.71
2019-05-22T10:29:06.368Z,79.88
2019-05-22T10:31:38.155Z,78.83
2019-05-22T10:34:09.745Z,79.47
2019-05-22T10:36:43.185Z,79.19
2019-05-22T10:39:14.880Z,80.38
2019-05-22T10:41:46.565Z,80.38
2019-05-22T10:44:19.067Z,80.72
2019-05-22T10:46:50.667Z,80.78
2019-05-22T10:49:22.263Z,80.83
2019-05-22T10:51:53.857Z,81.31
2019-05-22T10:54:25.720Z,81.16
2019-05-22T10:56:57.363Z,81.03
2019-05-22T10:59:28.950Z,80.68
2019-05-22T11:02:00.679Z,80.71
2019-05-22T11:04:32.643Z,80.71
2019-05-22T11:07:04.616Z,81.07
2019-05-22T11:09:37.243Z,81.75
2019-05-22T11:12:09.419Z,81.85
2019-05-22T11:14:41.104Z,81.75
2019-05-22T11:17:12.993Z,81.51
2019-05-22T11:19:45.452Z,82.31
2019-05-22T11:22:18.327Z,82.29
2019-05-22T11:24:49.910Z,81.52
2019-05-22T11:27:21.824Z,82.11
2019-05-22T11:29:54.121Z,81.50
2019-05-22T11:32:26.634Z,82.30
2019-05-22T11:34:58.688Z,82.18
2019-05-22T11:37:30.494Z,81.44
2019-05-22T11:40:02.581Z,81.22
2019-05-22T11:42:34.917Z,81.12
2019-05-22T11:45:07.377Z,80.78
2019-05-22T11:47:39.261Z,81.08
2019-05-22T11:50:12.820Z,80.72
2019-05-22T11:52:45.311Z,80.95
2019-05-22T11:55:18.209Z,80.36
2019-05-22T11:57:50.164Z,80.39
2019-05-22T12:00:24.005Z,80.02
2019-05-22T12:02:56.406Z,79.66
2019-05-22T12:05:28.204Z,78.43
2019-05-22T12:07:59.991Z,77.93
2019-05-22T12:10:31.813Z,78.26
2019-05-22T12:13:04.700Z,78.27
2019-05-22T12:15:37.041Z,78.54
2019-05-22T12:18:10.407Z,77.91
2019-05-22T12:20:42.022Z,75.70
2019-05-22T12:23:13.872Z,76.87
2019-05-22T12:25:45.604Z,76.30
2019-05-22T12:28:17.886Z,76.97
2019-05-22T12:30:50.296Z,76.80
2019-05-22T12:33:22.214Z,75.61
2019-05-22T12:35:54.240Z,76.33
2019-05-22T12:38:27.258Z,76.30
2019-05-22T12:40:59.606Z,75.98
2019-05-22T12:43:31.748Z,75.69
2019-05-22T12:46:03.948Z,75.94
2019-05-22T12:48:37.458Z,74.91
2019-05-22T12:51:09.716Z,74.79
2019-05-22T12:53:41.405Z,75.10
2019-05-22T12:56:13.296Z,73.37
2019-05-22T12:58:46.583Z,74.29
2019-05-22T13:01:19.660Z,74.10
2019-05-22T13:03:52.023Z,73.90
2019-05-22T13:06:23.817Z,73.50
2019-05-22T13:08:55.894Z,73.66
2019-05-22T13:11:27.724Z,71.46
2019-05-22T13:13:59.397Z,70.36
2019-05-22T13:16:32.917Z,69.03
2019-05-22T13:19:04.717Z,70.03
2019-05-22T13:21:39.393Z,69.07
2019-05-22T13:24:20.352Z,70.56
2019-05-22T13:26:53.943Z,69.60
2019-05-22T13:29:27.006Z,66.38
2019-05-22T13:31:59.637Z,68.37
2019-05-22T13:34:33.018Z,68.52
2019-05-22T13:37:04.860Z,67.21
2019-05-22T13:39:37.071Z,66.78
2019-05-22T13:42:13.313Z,66.00
2019-05-22T13:44:44.195Z,67.08
2019-05-22T13:47:16.488Z,68.21
2019-05-22T13:49:48.987Z,66.10
2019-05-22T13:52:20.921Z,66.02
2019-05-22T13:54:52.881Z,64.80
2019-05-22T13:57:25.674Z,67.08
2019-05-22T13:59:57.305Z,65.59
2019-05-22T14:02:29.493Z,67.06
2019-05-22T14:05:01.354Z,66.64
2019-05-22T14:07:33.784Z,65.96
2019-05-22T14:10:06.888Z,66.79
2019-05-22T14:12:38.693Z,65.89
2019-05-22T14:15:10.686Z,65.76
2019-05-22T14:17:43.084Z,65.64
2019-05-22T14:20:15.662Z,65.47
2019-05-22T14:22:47.239Z,63.25
2019-05-22T14:25:21.694Z,63.91
2019-05-22T14:27:53.329Z,65.06
2019-05-22T14:30:26.673Z,63.05
2019-05-22T14:33:04.391Z,65.26
2019-05-22T14:35:47.620Z,62.80
2019-05-22T14:38:10.475Z,62.20
2019-05-22T14:40:43.868Z,62.62
2019-05-22T14:43:15.652Z,62.40
2019-05-22T14:45:47.564Z,63.46
2019-05-22T14:48:19.450Z,62.23
2019-05-22T14:50:51.126Z,61.20
2019-05-22T14:53:24.227Z,60.72
2019-05-22T14:55:56.296Z,62.37
2019-05-22T14:58:28.502Z,62.22
2019-05-22T15:01:00.401Z,61.81
2019-05-22T15:03:32.222Z,61.83
2019-05-22T15:06:04.327Z,62.49
2019-05-22T15:08:35.948Z,62.86
2019-05-22T15:11:07.559Z,61.80
2019-05-22T15:13:39.476Z,61.93
2019-05-22T15:16:11.132Z,60.82
2019-05-22T15:18:42.983Z,60.68
2019-05-22T15:21:16.950Z,61.87
2019-05-22T15:23:51.018Z,60.30
2019-05-22T15:26:23.297Z,62.16
2019-05-22T15:28:54.924Z,62.46
2019-05-22T15:31:26.612Z,61.41
2019-05-22T15:33:59.221Z,62.93
2019-05-22T15:36:31.586Z,63.01
2019-05-22T15:39:05.180Z,61.78
2019-05-22T15:41:37.736Z,59.76
2019-05-22T15:44:10.145Z,60.54
2019-05-22T15:46:42.669Z,59.24
2019-05-22T15:49:16.249Z,59.76
2019-05-22T15:51:50.368Z,60.81
2019-05-22T15:54:22.052Z,61.19
2019-05-22T15:56:56.335Z,59.85
2019-05-22T15:59:30.836Z,59.76
2019-05-22T16:02:04.977Z,58.56
2019-05-22T16:04:38.937Z,59.24
2019-05-22T16:07:12.233Z,59.62
2019-05-22T16:09:47.592Z,59.80
2019-05-22T16:12:19.212Z,60.49
2019-05-22T16:14:53.047Z,60.77
2019-05-22T16:17:25.056Z,58.60
2019-05-22T16:19:56.648Z,59.25
2019-05-22T16:22:28.771Z,59.66
2019-05-22T16:25:00.559Z,60.69
2019-05-22T16:27:32.983Z,61.64
2019-05-22T16:30:05.608Z,61.83
2019-05-22T16:32:38.292Z,60.55
2019-05-22T16:35:10.691Z,60.54
2019-05-22T16:37:42.343Z,60.14
2019-05-22T16:40:14.691Z,60.45
2019-05-22T16:42:46.459Z,60.13
2019-05-22T16:45:18.600Z,60.24
2019-05-22T16:47:50.177Z,59.98
2019-05-22T16:50:22.599Z,60.37
2019-05-22T16:52:56.352Z,60.54
2019-05-22T16:55:30.108Z,61.02
2019-05-22T16:58:01.979Z,60.13
2019-05-22T17:00:33.622Z,59.34
2019-05-22T17:03:06.467Z,59.24
2019-05-22T17:05:38.232Z,59.72
2019-05-22T17:08:10.867Z,60.48
2019-05-22T17:10:43.344Z,60.28
2019-05-22T17:13:17.322Z,58.79
2019-05-22T17:15:49.125Z,58.35
2019-05-22T17:18:21.324Z,58.19
2019-05-22T17:20:52.971Z,58.17
2019-05-22T17:23:24.786Z,58.87
2019-05-22T17:25:57.457Z,58.35
2019-05-22T17:28:30.462Z,58.18
2019-05-22T17:31:02.284Z,58.14
2019-05-22T17:33:34.713Z,58.87
2019-05-22T17:36:11.052Z,56.87
2019-05-22T17:38:43.230Z,56.08
2019-05-22T17:41:15.351Z,53.45
2019-05-22T17:43:47.827Z,54.00
2019-05-22T17:46:21.520Z,53.57
2019-05-22T17:48:53.731Z,52.24
2019-05-22T17:51:26.717Z,53.52
2019-05-22T17:53:58.981Z,53.36
2019-05-22T17:56:31.255Z,53.73
2019-05-22T17:59:03.471Z,52.27
2019-05-22T18:01:35.691Z,54.23
2019-05-22T18:04:07.371Z,54.97
2019-05-22T18:06:39.060Z,55.66
2019-05-22T18:09:11.724Z,55.96
2019-05-22T18:11:43.365Z,57.56
2019-05-22T18:14:15.193Z,57.79
2019-05-22T18:16:46.918Z,57.52
2019-05-22T18:19:18.879Z,58.12
2019-05-22T18:21:50.973Z,55.80
2019-05-22T18:24:23.272Z,57.38
2019-05-22T18:26:54.883Z,58.03
2019-05-22T18:29:26.591Z,58.86
2019-05-22T18:31:58.195Z,59.06
2019-05-22T18:34:30.112Z,59.01
2019-05-22T18:37:01.875Z,59.95
2019-05-22T18:39:34.012Z,61.03
2019-05-22T18:42:05.730Z,60.78
2019-05-22T18:44:37.436Z,59.93
2019-05-22T18:47:10.201Z,60.56
2019-05-22T18:49:41.970Z,61.57
2019-05-22T18:52:13.564Z,62.29
2019-05-22T18:54:45.526Z,60.72
2019-05-22T18:57:17.609Z,62.22
2019-05-22T18:59:49.225Z,63.89
2019-05-22T19:02:20.887Z,64.51
2019-05-22T19:04:52.526Z,64.51
2019-05-22T19:07:24.162Z,65.21
2019-05-22T19:09:55.766Z,65.62
2019-05-22T19:12:28.592Z,66.94
2019-05-22T19:15:00.243Z,67.29
2019-05-22T19:17:31.943Z,67.86
2019-05-22T19:20:03.762Z,68.42
2019-05-22T19:22:35.446Z,69.15
2019-05-22T19:25:07.677Z,68.70
2019-05-22T19:27:39.366Z,69.22
2019-05-22T19:30:13.782Z,69.58
2019-05-22T19:32:46.070Z,70.21
2019-05-22T19:35:17.695Z,70.86
2019-05-22T19:37:50.268Z,71.21
2019-05-22T19:40:21.916Z,71.52
2019-05-22T19:42:54.656Z,71.76
2019-05-22T19:45:26.673Z,71.73
2019-05-22T19:47:59.596Z,72.09
2019-05-22T19:50:31.334Z,72.77
2019-05-22T19:53:18.168Z,73.05
2019-05-22T19:55:40.887Z,73.50
2019-05-22T19:58:12.976Z,73.91
2019-05-22T20:00:45.636Z,74.18
2019-05-22T20:03:19.027Z,74.22
2019-05-22T20:05:50.992Z,74.57
2019-05-22T20:08:23.035Z,74.75
2019-05-22T20:10:54.868Z,74.83
2019-05-22T20:13:27.264Z,74.86
2019-05-22T20:15:59.466Z,75.28
2019-05-22T20:18:31.376Z,75.53
2019-05-22T20:21:03.738Z,75.45
2019-05-22T20:23:37.065Z,75.64
2019-05-22T20:26:09.055Z,75.75
2019-05-22T20:28:40.839Z,75.78
2019-05-22T20:31:12.578Z,75.87
2019-05-22T20:33:44.266Z,75.92
2019-05-22T20:36:16.188Z,76.08
2019-05-22T20:38:47.805Z,76.41
2019-05-22T20:41:21.330Z,76.80
2019-05-22T20:43:53.071Z,77.05
2019-05-22T20:46:25.009Z,77.16
2019-05-22T20:48:57.311Z,77.07
2019-05-22T20:51:31.140Z,76.99
2019-05-22T20:54:03.021Z,76.42
2019-05-22T20:56:37.525Z,76.48
2019-05-22T20:59:10.641Z,76.55
2019-05-22T21:01:42.487Z,76.65
2019-05-22T21:04:17.198Z,76.73
2019-05-22T21:07:00.293Z,77.09
2019-05-22T21:09:32.468Z,77.23
2019-05-22T21:12:04.985Z,77.78
2019-05-22T21:14:37.257Z,77.98
2019-05-22T21:17:10.995Z,77.76
2019-05-22T21:19:43.102Z,77.64
2019-05-22T21:22:19.871Z,78.10
2019-05-22T21:24:53.173Z,78.06
2019-05-22T21:27:25.183Z,77.99
2019-05-22T21:29:57.679Z,77.98
2019-05-22T21:32:30.995Z,77.90
2019-05-22T21:35:03.017Z,78.06
2019-05-22T21:37:34.930Z,78.10
2019-05-22T21:40:08.107Z,78.50
2019-05-22T21:42:41.927Z,78.88
2019-05-22T21:45:14.370Z,79.03
2019-05-22T21:47:46.396Z,79.18
2019-05-22T21:50:19.940Z,79.09
2019-05-22T21:52:52.216Z,79.00
2019-05-22T21:55:25.666Z,79.01
2019-05-22T21:57:57.375Z,78.98
2019-05-22T22:00:50.989Z,79.21
2019-05-22T22:03:26.760Z,79.19
2019-05-22T22:05:59.289Z,79.45
2019-05-22T22:08:31.378Z,79.72
2019-05-22T22:11:03.693Z,79.75
2019-05-22T22:13:37.321Z,79.38
2019-05-22T22:16:09.630Z,78.81
2019-05-22T22:18:41.322Z,78.15
2019-05-22T22:21:13.859Z,78.69
2019-05-22T22:23:47.049Z,79.07
2019-05-22T22:26:25.798Z,79.54
2019-05-22T22:28:53.351Z,79.61
2019-05-22T22:31:27.225Z,79.92
2019-05-22T22:34:11.029Z,79.87
2019-05-22T22:36:42.644Z,79.98
2019-05-22T22:39:17.578Z,80.06
2019-05-22T22:41:49.162Z,79.88
2019-05-22T22:44:21.622Z,80.10
2019-05-22T22:46:57.752Z,79.77
2019-05-22T22:49:30.361Z,79.76
2019-05-22T22:52:01.940Z,79.79
2019-05-22T22:54:34.608Z,79.62
2019-05-22T22:57:07.097Z,79.57
2019-05-22T22:59:38.832Z,79.71
2019-05-22T23:02:14.283Z,79.83
2019-05-22T23:04:47.387Z,79.81
2019-05-22T23:07:20.457Z,80.03
2019-05-22T23:09:52.228Z,79.72
2019-05-22T23:12:24.236Z,79.79
2019-05-22T23:15:00.297Z,79.92
2019-05-22T23:17:32.274Z,79.97
2019-05-22T23:20:03.404Z,79.93
2019-05-22T23:22:32.752Z,79.77
2019-05-22T23:25:06.437Z,79.93
2019-05-22T23:27:39.214Z,80.06
2019-05-22T23:30:11.861Z,79.86
2019-05-22T23:32:44.496Z,79.58
2019-05-22T23:35:17.239Z,79.73
2019-05-22T23:37:49.613Z,79.67
2019-05-22T23:40:27.533Z,79.47
2019-05-22T23:43:00.569Z,79.74
2019-05-22T23:45:32.165Z,80.07
2019-05-22T23:48:14.594Z,80.17
2019-05-22T23:50:47.219Z,80.22
2019-05-22T23:53:20.988Z,79.96
2019-05-22T23:55:54.096Z,80.06
2019-05-22T23:58:26.247Z,79.29
